sensor_id;sensor_type;location;lat;lon;timestamp;P1;durP1;ratioP1;P2;durP2;ratioP2
49530;SDS011;38889;30.622;104.088;2022-08-19T00:01:51;9.25;;;8.27;;
49530;SDS011;38889;30.622;104.088;2022-08-19T00:04:22;8.07;;;7.38;;
49530;SDS011;38889;30.622;104.088;2022-08-19T00:06:51;8.20;;;7.43;;
49530;SDS011;38889;30.622;104.088;2022-08-19T00:09:19;8.90;;;8.00;;
49530;SDS011;38889;30.622;104.088;2022-08-19T00:11:48;7.88;;;7.18;;
49530;SDS011;38889;30.622;104.088;2022-08-19T00:14:18;7.63;;;6.93;;
49530;SDS011;38889;30.622;104.088;2022-08-19T00:16:47;7.30;;;6.45;;
49530;SDS011;38889;30.622;104.088;2022-08-19T00:19:16;7.03;;;6.32;;
49530;SDS011;38889;30.622;104.088;2022-08-19T00:21:44;7.57;;;6.78;;
49530;SDS011;38889;30.622;104.088;2022-08-19T00:24:12;8.07;;;7.13;;
49530;SDS011;38889;30.622;104.088;2022-08-19T00:26:41;7.00;;;6.35;;
49530;SDS011;38889;30.622;104.088;2022-08-19T00:29:10;7.07;;;6.20;;
49530;SDS011;38889;30.622;104.088;2022-08-19T00:31:38;7.55;;;6.70;;
49530;SDS011;38889;30.622;104.088;2022-08-19T00:34:08;7.05;;;6.35;;
49530;SDS011;38889;30.622;104.088;2022-08-19T00:36:37;9.15;;;6.65;;
49530;SDS011;38889;30.622;104.088;2022-08-19T00:39:05;6.45;;;5.70;;
49530;SDS011;38889;30.622;104.088;2022-08-19T00:41:33;6.30;;;5.70;;
49530;SDS011;38889;30.622;104.088;2022-08-19T00:44:05;6.07;;;5.47;;
49530;SDS011;38889;30.622;104.088;2022-08-19T00:46:35;6.55;;;5.40;;
49530;SDS011;38889;30.622;104.088;2022-08-19T00:49:07;7.00;;;5.95;;
49530;SDS011;38889;30.622;104.088;2022-08-19T00:51:44;10.98;;;6.30;;
49530;SDS011;38889;30.622;104.088;2022-08-19T00:54:13;7.15;;;6.18;;
49530;SDS011;38889;30.622;104.088;2022-08-19T00:56:42;6.25;;;5.50;;
49530;SDS011;38889;30.622;104.088;2022-08-19T00:59:10;7.43;;;5.60;;
49530;SDS011;38889;30.622;104.088;2022-08-19T01:01:39;6.78;;;5.80;;
49530;SDS011;38889;30.622;104.088;2022-08-19T01:04:08;6.57;;;5.88;;
49530;SDS011;38889;30.622;104.088;2022-08-19T01:06:36;6.45;;;5.63;;
49530;SDS011;38889;30.622;104.088;2022-08-19T01:09:24;7.20;;;6.50;;
49530;SDS011;38889;30.622;104.088;2022-08-19T01:11:52;8.13;;;6.68;;
49530;SDS011;38889;30.622;104.088;2022-08-19T01:14:20;8.95;;;6.43;;
49530;SDS011;38889;30.622;104.088;2022-08-19T01:16:47;6.93;;;6.25;;
49530;SDS011;38889;30.622;104.088;2022-08-19T01:22:03;7.93;;;5.93;;
49530;SDS011;38889;30.622;104.088;2022-08-19T01:24:53;8.20;;;6.28;;
49530;SDS011;38889;30.622;104.088;2022-08-19T01:27:20;6.47;;;5.80;;
49530;SDS011;38889;30.622;104.088;2022-08-19T01:29:47;9.60;;;6.28;;
49530;SDS011;38889;30.622;104.088;2022-08-19T01:32:15;6.93;;;6.00;;
49530;SDS011;38889;30.622;104.088;2022-08-19T01:34:44;6.60;;;5.90;;
49530;SDS011;38889;30.622;104.088;2022-08-19T01:37:13;5.72;;;5.22;;
49530;SDS011;38889;30.622;104.088;2022-08-19T01:39:41;6.82;;;6.13;;
49530;SDS011;38889;30.622;104.088;2022-08-19T01:42:09;7.13;;;5.22;;
49530;SDS011;38889;30.622;104.088;2022-08-19T01:44:38;7.13;;;5.93;;
49530;SDS011;38889;30.622;104.088;2022-08-19T01:47:07;6.93;;;5.65;;
49530;SDS011;38889;30.622;104.088;2022-08-19T01:49:35;8.00;;;5.78;;
49530;SDS011;38889;30.622;104.088;2022-08-19T01:52:03;6.65;;;5.95;;
49530;SDS011;38889;30.622;104.088;2022-08-19T01:54:31;6.85;;;5.63;;
49530;SDS011;38889;30.622;104.088;2022-08-19T01:57:00;6.72;;;4.90;;
49530;SDS011;38889;30.622;104.088;2022-08-19T01:59:33;5.82;;;5.00;;
49530;SDS011;38889;30.622;104.088;2022-08-19T02:02:02;6.63;;;5.03;;
49530;SDS011;38889;30.622;104.088;2022-08-19T02:04:32;6.75;;;5.00;;
49530;SDS011;38889;30.622;104.088;2022-08-19T02:07:00;5.57;;;4.63;;
49530;SDS011;38889;30.622;104.088;2022-08-19T02:09:28;7.15;;;4.95;;
49530;SDS011;38889;30.622;104.088;2022-08-19T02:11:57;6.13;;;5.38;;
49530;SDS011;38889;30.622;104.088;2022-08-19T02:14:25;6.65;;;5.15;;
49530;SDS011;38889;30.622;104.088;2022-08-19T02:16:55;6.00;;;5.15;;
49530;SDS011;38889;30.622;104.088;2022-08-19T02:19:22;5.47;;;4.93;;
49530;SDS011;38889;30.622;104.088;2022-08-19T02:21:49;5.80;;;5.15;;
49530;SDS011;38889;30.622;104.088;2022-08-19T02:24:16;6.18;;;5.05;;
49530;SDS011;38889;30.622;104.088;2022-08-19T02:26:43;6.25;;;5.00;;
49530;SDS011;38889;30.622;104.088;2022-08-19T02:29:10;5.50;;;4.88;;
49530;SDS011;38889;30.622;104.088;2022-08-19T02:31:38;6.53;;;4.95;;
49530;SDS011;38889;30.622;104.088;2022-08-19T02:34:05;5.30;;;4.70;;
49530;SDS011;38889;30.622;104.088;2022-08-19T02:36:32;5.25;;;4.28;;
49530;SDS011;38889;30.622;104.088;2022-08-19T02:38:59;7.03;;;4.80;;
49530;SDS011;38889;30.622;104.088;2022-08-19T02:41:29;9.18;;;5.07;;
49530;SDS011;38889;30.622;104.088;2022-08-19T02:43:59;8.20;;;4.85;;
49530;SDS011;38889;30.622;104.088;2022-08-19T02:46:29;7.82;;;4.80;;
49530;SDS011;38889;30.622;104.088;2022-08-19T02:48:58;7.30;;;4.82;;
49530;SDS011;38889;30.622;104.088;2022-08-19T02:51:32;8.07;;;5.22;;
49530;SDS011;38889;30.622;104.088;2022-08-19T02:54:04;6.80;;;4.68;;
49530;SDS011;38889;30.622;104.088;2022-08-19T02:56:34;6.93;;;5.05;;
49530;SDS011;38889;30.622;104.088;2022-08-19T03:01:58;11.55;;;5.40;;
49530;SDS011;38889;30.622;104.088;2022-08-19T03:04:25;8.50;;;5.13;;
49530;SDS011;38889;30.622;104.088;2022-08-19T03:06:55;7.40;;;5.28;;
49530;SDS011;38889;30.622;104.088;2022-08-19T03:09:22;8.45;;;5.10;;
49530;SDS011;38889;30.622;104.088;2022-08-19T03:11:49;6.55;;;4.90;;
49530;SDS011;38889;30.622;104.088;2022-08-19T03:14:16;7.32;;;4.88;;
49530;SDS011;38889;30.622;104.088;2022-08-19T03:16:48;8.52;;;5.25;;
49530;SDS011;38889;30.622;104.088;2022-08-19T03:19:17;6.10;;;4.63;;
49530;SDS011;38889;30.622;104.088;2022-08-19T03:21:49;6.18;;;4.40;;
49530;SDS011;38889;30.622;104.088;2022-08-19T03:24:17;5.80;;;4.60;;
49530;SDS011;38889;30.622;104.088;2022-08-19T03:26:47;7.03;;;4.85;;
49530;SDS011;38889;30.622;104.088;2022-08-19T03:29:16;5.65;;;4.43;;
49530;SDS011;38889;30.622;104.088;2022-08-19T03:31:45;5.85;;;4.40;;
49530;SDS011;38889;30.622;104.088;2022-08-19T03:34:19;7.45;;;4.80;;
49530;SDS011;38889;30.622;104.088;2022-08-19T03:36:54;7.13;;;5.43;;
49530;SDS011;38889;30.622;104.088;2022-08-19T03:39:23;9.25;;;6.35;;
49530;SDS011;38889;30.622;104.088;2022-08-19T03:41:51;9.48;;;6.15;;
49530;SDS011;38889;30.622;104.088;2022-08-19T03:44:22;9.65;;;6.20;;
49530;SDS011;38889;30.622;104.088;2022-08-19T03:46:53;9.93;;;6.57;;
49530;SDS011;38889;30.622;104.088;2022-08-19T03:49:24;11.93;;;7.07;;
49530;SDS011;38889;30.622;104.088;2022-08-19T03:51:54;10.43;;;6.60;;
49530;SDS011;38889;30.622;104.088;2022-08-19T03:54:23;10.02;;;6.78;;
49530;SDS011;38889;30.622;104.088;2022-08-19T03:56:52;11.13;;;7.10;;
49530;SDS011;38889;30.622;104.088;2022-08-19T03:59:22;9.57;;;7.03;;
49530;SDS011;38889;30.622;104.088;2022-08-19T04:01:52;8.63;;;6.07;;
49530;SDS011;38889;30.622;104.088;2022-08-19T04:04:21;9.85;;;6.93;;
49530;SDS011;38889;30.622;104.088;2022-08-19T04:06:49;8.80;;;6.10;;
49530;SDS011;38889;30.622;104.088;2022-08-19T04:09:17;10.82;;;7.05;;
49530;SDS011;38889;30.622;104.088;2022-08-19T04:11:47;9.05;;;6.50;;
49530;SDS011;38889;30.622;104.088;2022-08-19T04:14:18;8.52;;;6.10;;
49530;SDS011;38889;30.622;104.088;2022-08-19T04:16:48;8.95;;;6.30;;
49530;SDS011;38889;30.622;104.088;2022-08-19T04:19:16;8.00;;;6.00;;
49530;SDS011;38889;30.622;104.088;2022-08-19T04:21:49;8.77;;;6.20;;
49530;SDS011;38889;30.622;104.088;2022-08-19T04:24:19;9.20;;;6.25;;
49530;SDS011;38889;30.622;104.088;2022-08-19T04:26:47;8.07;;;5.75;;
49530;SDS011;38889;30.622;104.088;2022-08-19T04:29:17;7.65;;;6.07;;
49530;SDS011;38889;30.622;104.088;2022-08-19T04:31:50;7.50;;;5.82;;
49530;SDS011;38889;30.622;104.088;2022-08-19T04:34:19;7.28;;;5.93;;
49530;SDS011;38889;30.622;104.088;2022-08-19T04:36:50;8.27;;;5.57;;
49530;SDS011;38889;30.622;104.088;2022-08-19T04:39:20;8.07;;;5.60;;
49530;SDS011;38889;30.622;104.088;2022-08-19T04:42:09;6.32;;;5.45;;
49530;SDS011;38889;30.622;104.088;2022-08-19T04:44:54;9.38;;;6.55;;
49530;SDS011;38889;30.622;104.088;2022-08-19T04:47:36;6.72;;;5.35;;
49530;SDS011;38889;30.622;104.088;2022-08-19T04:50:05;7.20;;;5.65;;
49530;SDS011;38889;30.622;104.088;2022-08-19T04:52:33;7.00;;;5.57;;
49530;SDS011;38889;30.622;104.088;2022-08-19T04:55:00;7.32;;;5.68;;
49530;SDS011;38889;30.622;104.088;2022-08-19T04:57:27;8.63;;;5.45;;
49530;SDS011;38889;30.622;104.088;2022-08-19T04:59:59;5.93;;;5.10;;
49530;SDS011;38889;30.622;104.088;2022-08-19T05:02:26;8.05;;;5.95;;
49530;SDS011;38889;30.622;104.088;2022-08-19T05:04:58;7.72;;;5.30;;
49530;SDS011;38889;30.622;104.088;2022-08-19T05:07:28;6.88;;;5.30;;
49530;SDS011;38889;30.622;104.088;2022-08-19T05:09:56;6.80;;;5.75;;
49530;SDS011;38889;30.622;104.088;2022-08-19T05:12:23;6.85;;;5.43;;
49530;SDS011;38889;30.622;104.088;2022-08-19T05:14:51;7.80;;;5.60;;
49530;SDS011;38889;30.622;104.088;2022-08-19T05:17:19;6.20;;;5.38;;
49530;SDS011;38889;30.622;104.088;2022-08-19T05:19:47;6.70;;;4.90;;
49530;SDS011;38889;30.622;104.088;2022-08-19T05:22:32;7.25;;;5.30;;
49530;SDS011;38889;30.622;104.088;2022-08-19T05:25:07;6.03;;;4.88;;
49530;SDS011;38889;30.622;104.088;2022-08-19T05:27:37;6.32;;;5.50;;
49530;SDS011;38889;30.622;104.088;2022-08-19T05:30:06;6.45;;;5.57;;
49530;SDS011;38889;30.622;104.088;2022-08-19T05:32:34;6.97;;;5.40;;
49530;SDS011;38889;30.622;104.088;2022-08-19T05:35:02;6.43;;;5.32;;
49530;SDS011;38889;30.622;104.088;2022-08-19T05:37:30;6.45;;;5.22;;
49530;SDS011;38889;30.622;104.088;2022-08-19T05:39:58;5.60;;;5.00;;
49530;SDS011;38889;30.622;104.088;2022-08-19T05:42:25;7.32;;;5.60;;
49530;SDS011;38889;30.622;104.088;2022-08-19T05:44:53;6.88;;;5.38;;
49530;SDS011;38889;30.622;104.088;2022-08-19T05:47:21;5.80;;;5.20;;
49530;SDS011;38889;30.622;104.088;2022-08-19T05:49:48;6.18;;;5.53;;
49530;SDS011;38889;30.622;104.088;2022-08-19T05:52:16;6.63;;;5.45;;
49530;SDS011;38889;30.622;104.088;2022-08-19T05:54:45;6.50;;;4.97;;
49530;SDS011;38889;30.622;104.088;2022-08-19T05:57:13;6.00;;;5.30;;
49530;SDS011;38889;30.622;104.088;2022-08-19T05:59:41;5.43;;;4.88;;
49530;SDS011;38889;30.622;104.088;2022-08-19T06:02:11;5.57;;;5.07;;
49530;SDS011;38889;30.622;104.088;2022-08-19T06:04:39;6.20;;;5.10;;
49530;SDS011;38889;30.622;104.088;2022-08-19T06:07:09;5.80;;;5.25;;
49530;SDS011;38889;30.622;104.088;2022-08-19T06:09:36;6.40;;;5.53;;
49530;SDS011;38889;30.622;104.088;2022-08-19T06:12:04;5.80;;;5.20;;
49530;SDS011;38889;30.622;104.088;2022-08-19T06:14:32;6.03;;;5.18;;
49530;SDS011;38889;30.622;104.088;2022-08-19T06:17:00;6.22;;;5.00;;
49530;SDS011;38889;30.622;104.088;2022-08-19T06:19:29;6.18;;;5.30;;
49530;SDS011;38889;30.622;104.088;2022-08-19T06:21:57;5.90;;;5.10;;
49530;SDS011;38889;30.622;104.088;2022-08-19T06:24:26;6.60;;;5.47;;
49530;SDS011;38889;30.622;104.088;2022-08-19T06:26:56;5.68;;;5.07;;
49530;SDS011;38889;30.622;104.088;2022-08-19T06:29:25;5.85;;;5.25;;
49530;SDS011;38889;30.622;104.088;2022-08-19T06:31:54;6.47;;;5.30;;
49530;SDS011;38889;30.622;104.088;2022-08-19T06:34:24;5.78;;;5.18;;
49530;SDS011;38889;30.622;104.088;2022-08-19T06:36:57;6.38;;;5.28;;
49530;SDS011;38889;30.622;104.088;2022-08-19T06:39:29;5.50;;;4.75;;
49530;SDS011;38889;30.622;104.088;2022-08-19T06:41:59;7.22;;;5.05;;
49530;SDS011;38889;30.622;104.088;2022-08-19T06:44:29;5.45;;;4.95;;
49530;SDS011;38889;30.622;104.088;2022-08-19T06:47:01;4.97;;;4.47;;
49530;SDS011;38889;30.622;104.088;2022-08-19T06:49:32;5.38;;;4.88;;
49530;SDS011;38889;30.622;104.088;2022-08-19T06:52:00;5.38;;;4.88;;
49530;SDS011;38889;30.622;104.088;2022-08-19T06:54:28;5.95;;;4.90;;
49530;SDS011;38889;30.622;104.088;2022-08-19T06:56:59;5.63;;;5.13;;
49530;SDS011;38889;30.622;104.088;2022-08-19T06:59:30;5.45;;;4.95;;
49530;SDS011;38889;30.622;104.088;2022-08-19T07:02:00;5.43;;;4.93;;
49530;SDS011;38889;30.622;104.088;2022-08-19T07:04:31;5.40;;;4.90;;
49530;SDS011;38889;30.622;104.088;2022-08-19T07:07:06;5.60;;;5.00;;
49530;SDS011;38889;30.622;104.088;2022-08-19T07:09:38;5.40;;;4.90;;
49530;SDS011;38889;30.622;104.088;2022-08-19T07:12:07;5.90;;;5.13;;
49530;SDS011;38889;30.622;104.088;2022-08-19T07:14:36;6.07;;;5.35;;
49530;SDS011;38889;30.622;104.088;2022-08-19T07:17:05;5.28;;;4.78;;
49530;SDS011;38889;30.622;104.088;2022-08-19T07:19:34;7.55;;;4.88;;
49530;SDS011;38889;30.622;104.088;2022-08-19T07:22:03;5.13;;;4.63;;
49530;SDS011;38889;30.622;104.088;2022-08-19T07:24:32;5.05;;;4.53;;
49530;SDS011;38889;30.622;104.088;2022-08-19T07:27:01;6.25;;;5.10;;
49530;SDS011;38889;30.622;104.088;2022-08-19T07:29:30;6.22;;;5.05;;
49530;SDS011;38889;30.622;104.088;2022-08-19T07:32:00;5.57;;;4.97;;
49530;SDS011;38889;30.622;104.088;2022-08-19T07:34:29;6.88;;;5.05;;
49530;SDS011;38889;30.622;104.088;2022-08-19T07:37:02;5.88;;;5.20;;
49530;SDS011;38889;30.622;104.088;2022-08-19T07:39:32;5.60;;;5.00;;
49530;SDS011;38889;30.622;104.088;2022-08-19T07:42:03;7.30;;;5.55;;
49530;SDS011;38889;30.622;104.088;2022-08-19T07:44:35;6.30;;;5.22;;
49530;SDS011;38889;30.622;104.088;2022-08-19T07:47:04;5.78;;;5.18;;
49530;SDS011;38889;30.622;104.088;2022-08-19T07:49:32;6.22;;;5.60;;
49530;SDS011;38889;30.622;104.088;2022-08-19T07:52:03;6.30;;;5.32;;
49530;SDS011;38889;30.622;104.088;2022-08-19T07:54:33;6.03;;;5.07;;
49530;SDS011;38889;30.622;104.088;2022-08-19T07:57:02;5.82;;;5.22;;
49530;SDS011;38889;30.622;104.088;2022-08-19T07:59:30;6.40;;;5.20;;
49530;SDS011;38889;30.622;104.088;2022-08-19T08:01:58;5.47;;;4.97;;
49530;SDS011;38889;30.622;104.088;2022-08-19T08:04:26;6.47;;;5.20;;
49530;SDS011;38889;30.622;104.088;2022-08-19T08:07:13;5.93;;;5.03;;
49530;SDS011;38889;30.622;104.088;2022-08-19T08:09:58;5.40;;;4.78;;
49530;SDS011;38889;30.622;104.088;2022-08-19T08:12:31;6.28;;;5.43;;
49530;SDS011;38889;30.622;104.088;2022-08-19T08:15:07;5.95;;;5.32;;
49530;SDS011;38889;30.622;104.088;2022-08-19T08:17:38;5.20;;;4.70;;
49530;SDS011;38889;30.622;104.088;2022-08-19T08:20:06;6.82;;;5.13;;
49530;SDS011;38889;30.622;104.088;2022-08-19T08:22:34;6.03;;;4.93;;
49530;SDS011;38889;30.622;104.088;2022-08-19T08:25:21;6.72;;;5.20;;
49530;SDS011;38889;30.622;104.088;2022-08-19T08:27:52;5.10;;;4.60;;
49530;SDS011;38889;30.622;104.088;2022-08-19T08:30:23;5.30;;;4.80;;
49530;SDS011;38889;30.622;104.088;2022-08-19T08:32:52;7.18;;;5.00;;
49530;SDS011;38889;30.622;104.088;2022-08-19T08:35:21;5.47;;;4.97;;
49530;SDS011;38889;30.622;104.088;2022-08-19T08:37:51;5.68;;;5.18;;
49530;SDS011;38889;30.622;104.088;2022-08-19T08:42:58;5.65;;;5.03;;
49530;SDS011;38889;30.622;104.088;2022-08-19T08:45:33;5.82;;;5.22;;
49530;SDS011;38889;30.622;104.088;2022-08-19T08:48:24;5.80;;;5.22;;
49530;SDS011;38889;30.622;104.088;2022-08-19T08:51:18;5.35;;;4.85;;
49530;SDS011;38889;30.622;104.088;2022-08-19T08:53:52;6.18;;;5.57;;
49530;SDS011;38889;30.622;104.088;2022-08-19T08:56:20;6.18;;;5.30;;
49530;SDS011;38889;30.622;104.088;2022-08-19T09:01:20;6.63;;;5.65;;
49530;SDS011;38889;30.622;104.088;2022-08-19T09:03:47;6.68;;;5.63;;
49530;SDS011;38889;30.622;104.088;2022-08-19T09:12:23;6.20;;;5.60;;
49530;SDS011;38889;30.622;104.088;2022-08-19T09:15:08;5.70;;;5.20;;
49530;SDS011;38889;30.622;104.088;2022-08-19T09:17:38;6.35;;;5.75;;
49530;SDS011;38889;30.622;104.088;2022-08-19T09:22:37;5.80;;;5.20;;
49530;SDS011;38889;30.622;104.088;2022-08-19T09:25:06;6.47;;;5.82;;
49530;SDS011;38889;30.622;104.088;2022-08-19T09:27:36;7.63;;;5.97;;
49530;SDS011;38889;30.622;104.088;2022-08-19T09:30:05;8.07;;;7.00;;
49530;SDS011;38889;30.622;104.088;2022-08-19T09:32:33;8.60;;;6.28;;
49530;SDS011;38889;30.622;104.088;2022-08-19T09:35:01;8.23;;;6.25;;
49530;SDS011;38889;30.622;104.088;2022-08-19T09:37:28;6.75;;;6.00;;
49530;SDS011;38889;30.622;104.088;2022-08-19T09:39:56;6.60;;;5.90;;
49530;SDS011;38889;30.622;104.088;2022-08-19T09:42:23;7.07;;;5.90;;
49530;SDS011;38889;30.622;104.088;2022-08-19T09:44:50;7.25;;;6.40;;
49530;SDS011;38889;30.622;104.088;2022-08-19T09:47:18;6.47;;;5.88;;
49530;SDS011;38889;30.622;104.088;2022-08-19T09:49:45;6.85;;;6.13;;
49530;SDS011;38889;30.622;104.088;2022-08-19T09:52:14;6.65;;;6.05;;
49530;SDS011;38889;30.622;104.088;2022-08-19T09:54:41;7.68;;;5.90;;
49530;SDS011;38889;30.622;104.088;2022-08-19T09:57:08;6.75;;;5.88;;
49530;SDS011;38889;30.622;104.088;2022-08-19T09:59:35;6.78;;;6.13;;
49530;SDS011;38889;30.622;104.088;2022-08-19T10:02:04;7.13;;;6.43;;
49530;SDS011;38889;30.622;104.088;2022-08-19T10:04:32;6.82;;;6.05;;
49530;SDS011;38889;30.622;104.088;2022-08-19T10:07:17;7.15;;;6.30;;
49530;SDS011;38889;30.622;104.088;2022-08-19T10:09:44;7.57;;;6.60;;
49530;SDS011;38889;30.622;104.088;2022-08-19T10:12:12;7.35;;;6.60;;
49530;SDS011;38889;30.622;104.088;2022-08-19T10:14:40;8.50;;;6.93;;
49530;SDS011;38889;30.622;104.088;2022-08-19T10:17:08;9.25;;;7.50;;
49530;SDS011;38889;30.622;104.088;2022-08-19T10:19:35;8.75;;;7.10;;
49530;SDS011;38889;30.622;104.088;2022-08-19T10:22:03;8.27;;;7.43;;
49530;SDS011;38889;30.622;104.088;2022-08-19T10:24:33;9.57;;;7.53;;
49530;SDS011;38889;30.622;104.088;2022-08-19T10:27:01;8.23;;;7.43;;
49530;SDS011;38889;30.622;104.088;2022-08-19T10:29:29;10.35;;;7.88;;
49530;SDS011;38889;30.622;104.088;2022-08-19T10:31:58;8.82;;;7.72;;
49530;SDS011;38889;30.622;104.088;2022-08-19T10:34:26;8.55;;;7.50;;
49530;SDS011;38889;30.622;104.088;2022-08-19T10:36:54;9.77;;;7.90;;
49530;SDS011;38889;30.622;104.088;2022-08-19T10:39:22;9.35;;;7.88;;
49530;SDS011;38889;30.622;104.088;2022-08-19T10:41:50;8.48;;;7.65;;
49530;SDS011;38889;30.622;104.088;2022-08-19T10:44:16;8.52;;;7.35;;
49530;SDS011;38889;30.622;104.088;2022-08-19T10:46:45;8.85;;;7.63;;
49530;SDS011;38889;30.622;104.088;2022-08-19T10:49:12;8.02;;;7.20;;
49530;SDS011;38889;30.622;104.088;2022-08-19T10:51:39;9.10;;;7.60;;
49530;SDS011;38889;30.622;104.088;2022-08-19T10:54:25;7.80;;;6.90;;
49530;SDS011;38889;30.622;104.088;2022-08-19T10:57:13;8.02;;;7.05;;
49530;SDS011;38889;30.622;104.088;2022-08-19T10:59:44;8.20;;;7.00;;
49530;SDS011;38889;30.622;104.088;2022-08-19T11:02:12;7.55;;;6.80;;
49530;SDS011;38889;30.622;104.088;2022-08-19T11:04:40;8.18;;;6.82;;
49530;SDS011;38889;30.622;104.088;2022-08-19T11:07:07;7.38;;;6.65;;
49530;SDS011;38889;30.622;104.088;2022-08-19T11:09:39;8.60;;;7.07;;
49530;SDS011;38889;30.622;104.088;2022-08-19T11:12:08;7.32;;;6.63;;
49530;SDS011;38889;30.622;104.088;2022-08-19T11:14:36;7.43;;;6.60;;
49530;SDS011;38889;30.622;104.088;2022-08-19T11:17:03;7.65;;;6.32;;
49530;SDS011;38889;30.622;104.088;2022-08-19T11:19:32;7.72;;;6.80;;
49530;SDS011;38889;30.622;104.088;2022-08-19T11:22:00;7.60;;;6.32;;
49530;SDS011;38889;30.622;104.088;2022-08-19T11:24:29;7.35;;;6.65;;
49530;SDS011;38889;30.622;104.088;2022-08-19T11:27:00;7.00;;;6.30;;
49530;SDS011;38889;30.622;104.088;2022-08-19T11:29:30;7.55;;;6.75;;
49530;SDS011;38889;30.622;104.088;2022-08-19T11:31:59;6.55;;;5.90;;
49530;SDS011;38889;30.622;104.088;2022-08-19T11:34:30;7.45;;;6.70;;
49530;SDS011;38889;30.622;104.088;2022-08-19T11:36:57;6.85;;;6.15;;
49530;SDS011;38889;30.622;104.088;2022-08-19T11:39:27;6.35;;;5.75;;
49530;SDS011;38889;30.622;104.088;2022-08-19T11:41:57;7.25;;;6.55;;
49530;SDS011;38889;30.622;104.088;2022-08-19T11:44:25;6.72;;;6.13;;
49530;SDS011;38889;30.622;104.088;2022-08-19T11:46:55;7.13;;;6.43;;
49530;SDS011;38889;30.622;104.088;2022-08-19T11:49:23;7.30;;;6.15;;
49530;SDS011;38889;30.622;104.088;2022-08-19T11:51:50;6.95;;;6.25;;
49530;SDS011;38889;30.622;104.088;2022-08-19T11:54:18;6.57;;;5.97;;
49530;SDS011;38889;30.622;104.088;2022-08-19T11:56:46;6.25;;;5.65;;
49530;SDS011;38889;30.622;104.088;2022-08-19T11:59:14;6.40;;;5.80;;
49530;SDS011;38889;30.622;104.088;2022-08-19T12:01:41;5.82;;;5.32;;
49530;SDS011;38889;30.622;104.088;2022-08-19T12:04:09;6.43;;;5.82;;
49530;SDS011;38889;30.622;104.088;2022-08-19T12:06:39;6.57;;;5.88;;
49530;SDS011;38889;30.622;104.088;2022-08-19T12:09:10;8.05;;;6.30;;
49530;SDS011;38889;30.622;104.088;2022-08-19T12:11:37;7.53;;;6.72;;
49530;SDS011;38889;30.622;104.088;2022-08-19T12:14:05;7.07;;;6.30;;
49530;SDS011;38889;30.622;104.088;2022-08-19T12:16:35;8.25;;;7.28;;
49530;SDS011;38889;30.622;104.088;2022-08-19T12:19:04;7.32;;;6.60;;
49530;SDS011;38889;30.622;104.088;2022-08-19T12:21:32;7.10;;;6.40;;
49530;SDS011;38889;30.622;104.088;2022-08-19T12:24:06;7.00;;;6.30;;
49530;SDS011;38889;30.622;104.088;2022-08-19T12:26:34;7.25;;;6.55;;
49530;SDS011;38889;30.622;104.088;2022-08-19T12:29:02;6.60;;;6.00;;
49530;SDS011;38889;30.622;104.088;2022-08-19T12:31:30;6.63;;;6.03;;
49530;SDS011;38889;30.622;104.088;2022-08-19T12:33:57;6.53;;;5.93;;
49530;SDS011;38889;30.622;104.088;2022-08-19T12:36:24;7.50;;;6.75;;
49530;SDS011;38889;30.622;104.088;2022-08-19T12:38:54;6.57;;;5.97;;
49530;SDS011;38889;30.622;104.088;2022-08-19T12:41:25;6.28;;;5.68;;
49530;SDS011;38889;30.622;104.088;2022-08-19T12:43:52;6.85;;;6.18;;
49530;SDS011;38889;30.622;104.088;2022-08-19T12:46:19;6.50;;;5.90;;
49530;SDS011;38889;30.622;104.088;2022-08-19T12:48:47;7.07;;;5.95;;
49530;SDS011;38889;30.622;104.088;2022-08-19T12:51:15;6.60;;;6.00;;
49530;SDS011;38889;30.622;104.088;2022-08-19T12:53:47;7.32;;;6.25;;
49530;SDS011;38889;30.622;104.088;2022-08-19T12:56:15;6.97;;;6.28;;
49530;SDS011;38889;30.622;104.088;2022-08-19T12:58:44;6.63;;;6.03;;
49530;SDS011;38889;30.622;104.088;2022-08-19T13:01:12;6.60;;;6.00;;
49530;SDS011;38889;30.622;104.088;2022-08-19T13:03:41;7.10;;;6.40;;
49530;SDS011;38889;30.622;104.088;2022-08-19T13:06:11;6.43;;;5.82;;
49530;SDS011;38889;30.622;104.088;2022-08-19T13:08:39;6.53;;;5.93;;
49530;SDS011;38889;30.622;104.088;2022-08-19T13:11:08;6.47;;;5.85;;
49530;SDS011;38889;30.622;104.088;2022-08-19T13:13:41;6.55;;;5.95;;
49530;SDS011;38889;30.622;104.088;2022-08-19T13:16:10;6.20;;;5.50;;
49530;SDS011;38889;30.622;104.088;2022-08-19T13:18:39;6.30;;;5.70;;
49530;SDS011;38889;30.622;104.088;2022-08-19T13:21:08;6.88;;;6.28;;
49530;SDS011;38889;30.622;104.088;2022-08-19T13:23:40;6.43;;;5.82;;
49530;SDS011;38889;30.622;104.088;2022-08-19T13:26:08;6.07;;;5.57;;
49530;SDS011;38889;30.622;104.088;2022-08-19T13:28:37;6.30;;;5.70;;
49530;SDS011;38889;30.622;104.088;2022-08-19T13:31:25;6.18;;;5.57;;
49530;SDS011;38889;30.622;104.088;2022-08-19T13:34:13;6.38;;;5.78;;
49530;SDS011;38889;30.622;104.088;2022-08-19T13:36:41;6.05;;;5.45;;
49530;SDS011;38889;30.622;104.088;2022-08-19T13:39:09;6.00;;;5.40;;
49530;SDS011;38889;30.622;104.088;2022-08-19T13:41:37;6.38;;;5.78;;
49530;SDS011;38889;30.622;104.088;2022-08-19T13:44:09;6.45;;;5.85;;
49530;SDS011;38889;30.622;104.088;2022-08-19T13:46:36;6.30;;;5.70;;
49530;SDS011;38889;30.622;104.088;2022-08-19T13:49:04;6.18;;;5.57;;
49530;SDS011;38889;30.622;104.088;2022-08-19T13:51:31;6.40;;;5.80;;
49530;SDS011;38889;30.622;104.088;2022-08-19T13:54:00;6.47;;;5.80;;
49530;SDS011;38889;30.622;104.088;2022-08-19T13:56:27;6.40;;;5.80;;
49530;SDS011;38889;30.622;104.088;2022-08-19T13:58:55;6.22;;;5.63;;
49530;SDS011;38889;30.622;104.088;2022-08-19T14:01:23;6.00;;;5.50;;
49530;SDS011;38889;30.622;104.088;2022-08-19T14:03:51;6.40;;;5.80;;
49530;SDS011;38889;30.622;104.088;2022-08-19T14:06:19;6.45;;;5.80;;
49530;SDS011;38889;30.622;104.088;2022-08-19T14:08:48;6.20;;;5.60;;
49530;SDS011;38889;30.622;104.088;2022-08-19T14:11:15;6.60;;;6.00;;
49530;SDS011;38889;30.622;104.088;2022-08-19T14:13:43;5.65;;;5.15;;
49530;SDS011;38889;30.622;104.088;2022-08-19T14:16:12;5.53;;;5.03;;
49530;SDS011;38889;30.622;104.088;2022-08-19T14:18:41;6.70;;;6.10;;
49530;SDS011;38889;30.622;104.088;2022-08-19T14:21:11;6.22;;;5.63;;
49530;SDS011;38889;30.622;104.088;2022-08-19T14:23:43;6.32;;;5.72;;
49530;SDS011;38889;30.622;104.088;2022-08-19T14:26:12;5.82;;;5.30;;
49530;SDS011;38889;30.622;104.088;2022-08-19T14:28:42;5.60;;;5.10;;
49530;SDS011;38889;30.622;104.088;2022-08-19T14:31:10;6.10;;;5.53;;
49530;SDS011;38889;30.622;104.088;2022-08-19T14:33:40;6.45;;;5.82;;
49530;SDS011;38889;30.622;104.088;2022-08-19T14:36:08;6.15;;;5.63;;
49530;SDS011;38889;30.622;104.088;2022-08-19T14:38:36;6.78;;;6.10;;
49530;SDS011;38889;30.622;104.088;2022-08-19T14:41:11;6.55;;;5.95;;
49530;SDS011;38889;30.622;104.088;2022-08-19T14:43:48;5.85;;;5.30;;
49530;SDS011;38889;30.622;104.088;2022-08-19T14:46:19;6.50;;;5.90;;
49530;SDS011;38889;30.622;104.088;2022-08-19T14:48:48;6.82;;;6.20;;
49530;SDS011;38889;30.622;104.088;2022-08-19T14:51:16;6.85;;;6.15;;
49530;SDS011;38889;30.622;104.088;2022-08-19T14:53:45;6.28;;;5.68;;
49530;SDS011;38889;30.622;104.088;2022-08-19T14:56:31;6.07;;;5.57;;